Terminal Aerodrome Forecast
Issued by NWS

Home | Current Version | Previous Version | Text Only | Print | Product List | Glossary On
Versions: 1 2 3 4 5 6 7 8 9 10 11 12 13 14 15
599
FTUS44 KLZK 200551 AAC
TAFLLQ
TAF AMD
KLLQ 200551Z 2006/2106 18005KT P6SM SCT025 OVC040
     FM200800 20004KT P6SM SCT025 OVC040
      TEMPO 2010/2014 BKN025
     FM201400 VRB03KT P6SM -DZ OVC015
     FM202000 16007KT P6SM OVC015
     FM210200 13009KT P6SM OVC030=

USA.gov is the U.S. government's official web portal to all federal, state and local government web resources and services.